Time;durP1;ratioP1;P1;durP2;ratioP2;P2;SDS_P1;SDS_P2;PMS_P1;PMS_P2;Temp;Humidity;BMP_temperature;BMP_pressure;BME280_temperature;BME280_humidity;BME280_pressure;Samples;Min_cycle;Max_cycle;Signal;HPM_P1;HPM_P2
2020/12/26 00:02:21;;;;;;;1.85;0.95;;;;;;;5.08;92.87;100358.09;4996669;28;20049;-78
2020/12/26 00:05:25;;;;;;;2.42;1.42;;;;;;;5.10;92.94;100362.34;4997547;28;20045;-78
2020/12/26 00:08:29;;;;;;;1.98;1.15;;;;;;;5.07;92.99;100351.06;4979062;28;20101;-78
2020/12/26 00:11:33;;;;;;;3.58;1.30;;;;;;;5.08;93.24;100356.28;4979058;28;20053;-77
2020/12/26 00:14:38;;;;;;;5.57;1.65;;;;;;;5.19;93.20;100350.25;4979238;28;20053;-78
2020/12/26 00:17:42;;;;;;;3.17;1.80;;;;;;;5.24;93.57;100362.28;4978865;28;20053;-78
2020/12/26 00:20:46;;;;;;;5.07;1.60;;;;;;;5.28;93.59;100353.16;4978898;28;20073;-79
2020/12/26 00:23:51;;;;;;;2.35;1.50;;;;;;;5.34;93.67;100353.69;4985212;28;20049;-79
2020/12/26 00:26:56;;;;;;;2.80;1.42;;;;;;;5.38;93.94;100350.75;4998235;28;20045;-79
2020/12/26 00:30:00;;;;;;;2.80;1.60;;;;;;;5.40;93.93;100353.31;4997355;28;20061;-78
2020/12/26 00:33:04;;;;;;;2.72;1.30;;;;;;;5.42;94.17;100346.94;4978665;28;20054;-78
2020/12/26 00:36:09;;;;;;;2.33;1.63;;;;;;;5.42;93.84;100338.94;4978541;28;20065;-79
2020/12/26 00:39:13;;;;;;;3.38;1.40;;;;;;;5.36;93.76;100335.84;4993413;28;20061;-78
2020/12/26 00:42:17;;;;;;;4.13;1.67;;;;;;;5.35;94.03;100345.63;4997909;28;20049;-79
2020/12/26 00:45:22;;;;;;;2.90;1.70;;;;;;;5.36;93.66;100346.50;4996591;28;20516;-78
2020/12/26 00:48:26;;;;;;;2.60;1.40;;;;;;;5.35;93.75;100342.97;4997269;28;20126;-78
2020/12/26 00:51:30;;;;;;;2.55;1.40;;;;;;;5.39;93.81;100352.44;4997727;28;20053;-78
2020/12/26 00:54:35;;;;;;;2.13;1.40;;;;;;;5.47;93.85;100359.94;5008372;28;20072;-78
2020/12/26 00:57:42;;;;;;;2.42;1.60;;;;;;;5.37;93.41;100349.03;4997872;28;20053;-79
2020/12/26 01:00:47;;;;;;;3.25;1.50;;;;;;;5.36;93.67;100351.81;4997015;28;20053;-78
2020/12/26 01:04:17;;;;;;;2.60;1.33;;;;;;;5.31;93.42;100348.59;4996360;28;20405;-79
2020/12/26 01:07:22;;;;;;;4.80;1.40;;;;;;;5.37;93.54;100358.81;4989217;28;20049;-78
2020/12/26 01:10:26;;;;;;;2.40;1.30;;;;;;;5.43;93.21;100363.75;4996663;28;20053;-78
2020/12/26 01:13:31;;;;;;;2.35;1.30;;;;;;;5.51;93.07;100372.06;4996224;28;20057;-77
2020/12/26 01:16:35;;;;;;;2.42;1.23;;;;;;;5.52;93.04;100371.97;5018848;28;20114;-78
2020/12/26 01:19:39;;;;;;;2.08;1.27;;;;;;;5.52;93.07;100373.78;4977830;28;20492;-78
2020/12/26 01:22:43;;;;;;;1.77;1.13;;;;;;;5.52;92.92;100379.09;4978026;28;20058;-78
2020/12/26 01:25:49;;;;;;;2.35;1.30;;;;;;;5.52;92.71;100376.44;4991453;28;20398;-78
2020/12/26 01:28:54;;;;;;;2.58;1.40;;;;;;;5.46;92.69;100377.69;4997068;28;20057;-78
2020/12/26 01:31:58;;;;;;;2.15;1.35;;;;;;;5.51;92.61;100377.38;4996914;28;20409;-77
2020/12/26 01:35:03;;;;;;;2.30;1.42;;;;;;;5.53;93.09;100378.16;4995925;28;20054;-76
2020/12/26 01:38:07;;;;;;;5.15;1.30;;;;;;;5.46;92.92;100384.81;4978301;28;20074;-78
2020/12/26 01:41:14;;;;;;;2.15;1.20;;;;;;;5.52;93.00;100387.09;4996467;28;20061;-79
2020/12/26 01:44:19;;;;;;;2.30;1.38;;;;;;;5.48;92.88;100391.75;4996824;28;20386;-78
2020/12/26 01:47:23;;;;;;;3.28;1.20;;;;;;;5.47;93.16;100392.72;4996204;28;20507;-77
2020/12/26 01:50:27;;;;;;;2.83;1.52;;;;;;;5.57;93.37;100398.28;4996716;28;20058;-78
2020/12/26 01:53:32;;;;;;;2.25;1.45;;;;;;;5.44;93.03;100392.91;4996194;28;20397;-78
2020/12/26 01:56:40;;;;;;;2.60;1.40;;;;;;;5.45;93.15;100385.78;4995072;28;20065;-78
2020/12/26 01:59:45;;;;;;;2.60;1.45;;;;;;;5.41;92.74;100393.13;4977131;28;20058;-78
2020/12/26 02:02:49;;;;;;;2.60;1.55;;;;;;;5.45;93.14;100399.97;4991798;28;20050;-77
2020/12/26 02:05:54;;;;;;;6.28;2.10;;;;;;;5.39;93.02;100394.16;4996415;28;20481;-79
2020/12/26 02:09:00;;;;;;;2.38;1.45;;;;;;;5.38;93.37;100396.00;4976278;28;20054;-76
2020/12/26 02:12:04;;;;;;;3.00;1.70;;;;;;;5.45;93.55;100399.09;4985337;28;20049;-77
2020/12/26 02:15:12;;;;;;;3.05;1.50;;;;;;;5.40;93.26;100407.41;4994821;28;20049;-78
2020/12/26 02:18:16;;;;;;;2.47;1.48;;;;;;;5.44;93.47;100395.59;4987906;28;20093;-78
2020/12/26 02:21:23;;;;;;;;;;;;;;;5.42;93.34;100413.47;4996578;28;20477;-78
2020/12/26 02:24:28;;;;;;;2.83;1.50;;;;;;;5.45;93.67;100399.97;4995559;28;19918;-77
2020/12/26 02:27:32;;;;;;;2.20;1.40;;;;;;;5.39;93.40;100403.00;4994972;28;20049;-78
2020/12/26 02:30:39;;;;;;;2.10;1.20;;;;;;;5.41;93.60;100400.25;4995897;28;20058;-77
2020/12/26 02:33:43;;;;;;;2.45;1.48;;;;;;;5.38;93.56;100393.34;4995892;28;20050;-78
2020/12/26 02:36:47;;;;;;;2.67;1.50;;;;;;;5.32;93.90;100399.06;4988283;28;20049;-77
2020/12/26 02:39:52;;;;;;;2.33;1.40;;;;;;;5.36;94.01;100405.88;4995796;28;20481;-78
2020/12/26 02:42:56;;;;;;;3.00;1.48;;;;;;;5.33;93.54;100407.91;4995523;28;20045;-78
2020/12/26 02:46:02;;;;;;;2.40;1.60;;;;;;;5.24;93.97;100414.66;4995365;28;20054;-78
2020/12/26 02:49:07;;;;;;;3.72;1.40;;;;;;;5.15;94.48;100409.94;4995382;28;20528;-78
2020/12/26 02:52:11;;;;;;;2.97;1.60;;;;;;;5.16;93.97;100414.31;4995513;28;20493;-77
2020/12/26 02:55:15;;;;;;;2.88;1.52;;;;;;;5.18;94.57;100431.03;5005557;28;20050;-78
2020/12/26 02:58:21;;;;;;;2.50;1.52;;;;;;;5.03;94.91;100434.69;4994949;28;20061;-78
2020/12/26 03:01:25;;;;;;;3.90;1.90;;;;;;;5.01;95.15;100444.56;4995670;28;20489;-78
2020/12/26 03:04:30;;;;;;;2.78;2.00;;;;;;;4.90;95.11;100445.22;4976192;28;20053;-78
2020/12/26 03:07:34;;;;;;;3.53;2.33;;;;;;;4.72;94.31;100450.84;4990728;28;20053;-78
2020/12/26 03:10:38;;;;;;;3.85;2.75;;;;;;;4.59;94.44;100456.91;4995169;28;20117;-80
2020/12/26 03:13:43;;;;;;;4.00;2.60;;;;;;;4.56;94.27;100478.38;4994895;28;20051;-78
2020/12/26 03:16:48;;;;;;;3.90;2.80;;;;;;;4.45;94.03;100466.69;4994570;28;20057;-76
2020/12/26 03:19:52;;;;;;;4.47;3.35;;;;;;;4.36;94.43;100477.88;5005706;28;20053;-79
2020/12/26 03:22:57;;;;;;;3.85;3.25;;;;;;;4.39;94.53;100478.56;4994265;28;20106;-79
2020/12/26 03:26:00;;;;;;;4.43;3.40;;;;;;;4.43;94.47;100484.53;4995096;28;20061;-77
2020/12/26 03:29:05;;;;;;;4.35;3.50;;;;;;;4.38;94.46;100479.50;4994775;28;20041;-79
2020/12/26 03:32:09;;;;;;;4.80;2.80;;;;;;;4.36;94.59;100477.88;4995044;28;20053;-79
2020/12/26 03:35:14;;;;;;;3.75;3.25;;;;;;;4.35;94.75;100484.13;4994624;28;20394;-78
2020/12/26 03:38:18;;;;;;;4.28;3.38;;;;;;;4.41;94.85;100484.63;4994726;28;20045;-78
2020/12/26 03:41:22;;;;;;;6.10;3.28;;;;;;;4.34;94.63;100479.78;4994783;28;20122;-78
2020/12/26 03:44:26;;;;;;;4.60;3.58;;;;;;;4.42;94.80;100481.00;4993760;28;20532;-80
2020/12/26 03:47:31;;;;;;;5.30;3.35;;;;;;;4.35;94.68;100479.66;4994295;28;20054;-78
2020/12/26 03:50:35;;;;;;;3.58;3.22;;;;;;;4.42;94.76;100483.66;4994540;28;20057;-77
2020/12/26 03:53:39;;;;;;;5.07;3.40;;;;;;;4.42;94.48;100473.03;4994229;28;20050;-78
2020/12/26 03:56:44;;;;;;;3.70;3.20;;;;;;;4.43;94.43;100479.22;4994000;28;20173;-78
2020/12/26 03:59:48;;;;;;;3.58;3.10;;;;;;;4.34;94.25;100487.75;4994767;28;20061;-78
2020/12/26 04:02:52;;;;;;;4.00;3.53;;;;;;;4.33;94.76;100491.34;4994492;28;20049;-78
2020/12/26 04:05:57;;;;;;;6.25;3.75;;;;;;;4.20;94.83;100485.91;4993293;28;20053;-79
2020/12/26 04:09:01;;;;;;;;;;;;;;;4.20;94.84;100490.34;4975748;28;20050;-79
2020/12/26 04:12:06;;;;;;;4.07;3.55;;;;;;;4.26;94.88;100490.00;4975037;28;19918;-77
2020/12/26 04:15:10;;;;;;;5.22;3.42;;;;;;;4.18;94.71;100486.94;4975053;28;20049;-77
2020/12/26 04:18:15;;;;;;;3.65;3.13;;;;;;;4.20;94.78;100490.34;4974971;28;20053;-79
2020/12/26 04:21:23;;;;;;;3.83;3.13;;;;;;;4.23;94.89;100496.34;4974833;28;20054;-78
2020/12/26 04:24:27;;;;;;;3.55;2.80;;;;;;;4.26;94.71;100493.53;4989662;28;20057;-78
2020/12/26 04:27:31;;;;;;;3.30;3.00;;;;;;;4.19;94.46;100509.91;4986770;28;20053;-77
2020/12/26 04:30:36;;;;;;;3.60;2.92;;;;;;;4.06;94.50;100503.59;4994189;28;20062;-79
2020/12/26 04:33:40;;;;;;;4.15;3.38;;;;;;;4.00;94.82;100507.47;4994190;28;20398;-78
2020/12/26 04:36:45;;;;;;;3.47;2.85;;;;;;;4.05;94.94;100516.00;4974808;28;20058;-78
2020/12/26 04:39:51;;;;;;;3.50;2.70;;;;;;;4.03;94.78;100509.94;4974745;28;20394;-79
2020/12/26 04:42:58;;;;;;;2.88;2.58;;;;;;;4.05;94.95;100524.00;4975081;28;20059;-78
2020/12/26 04:46:12;;;;;;;3.35;2.97;;;;;;;4.05;94.79;100524.00;4990007;28;20054;-76
2020/12/26 04:49:18;;;;;;;3.25;2.95;;;;;;;4.12;94.82;100529.81;4978144;28;20066;-78
2020/12/26 04:52:25;;;;;;;4.68;2.75;;;;;;;4.06;94.58;100539.00;4989173;28;20057;-78
2020/12/26 04:55:34;;;;;;;3.25;2.72;;;;;;;4.07;94.34;100532.75;4997650;28;20045;-77
2020/12/26 04:58:44;;;;;;;3.70;3.13;;;;;;;3.98;94.63;100530.59;4997862;28;20370;-78
2020/12/26 05:01:49;;;;;;;3.90;3.25;;;;;;;4.02;94.81;100552.53;4978372;28;20386;-78
2020/12/26 05:04:55;;;;;;;5.70;3.00;;;;;;;3.92;94.84;100549.56;4983765;28;20402;-79
2020/12/26 05:08:07;;;;;;;3.97;3.58;;;;;;;3.86;94.69;100550.75;4993548;28;20054;-78
2020/12/26 05:11:12;;;;;;;4.20;3.63;;;;;;;3.99;95.10;100550.91;4997366;28;20050;-78
2020/12/26 05:14:17;;;;;;;4.13;3.70;;;;;;;4.05;94.90;100555.03;4996111;28;20069;-78
2020/12/26 05:17:22;;;;;;;4.55;3.60;;;;;;;4.03;94.95;100549.78;4997303;28;20066;-78
2020/12/26 05:20:27;;;;;;;3.65;3.33;;;;;;;4.16;94.47;100557.91;4997143;28;20057;-78
2020/12/26 05:23:31;;;;;;;3.90;3.50;;;;;;;4.17;94.36;100552.53;4997229;28;20473;-78
2020/12/26 05:26:43;;;;;;;4.18;3.72;;;;;;;4.29;94.03;100559.75;4996626;28;20073;-78
2020/12/26 05:29:48;;;;;;;3.42;3.13;;;;;;;4.32;93.79;100569.34;4997145;28;20061;-77
2020/12/26 05:32:58;;;;;;;3.70;3.20;;;;;;;4.35;93.69;100567.34;4997314;28;20054;-77
2020/12/26 05:36:04;;;;;;;3.05;2.75;;;;;;;4.39;93.16;100579.53;4997067;28;20054;-78
2020/12/26 05:39:11;;;;;;;3.42;3.13;;;;;;;4.38;93.12;100588.44;4996678;28;20409;-78
2020/12/26 05:42:19;;;;;;;3.35;3.05;;;;;;;4.33;92.78;100597.63;4996844;28;20049;-76
2020/12/26 05:45:24;;;;;;;3.42;3.10;;;;;;;4.26;92.78;100607.75;4996544;28;20049;-78
2020/12/26 05:48:28;;;;;;;3.58;2.95;;;;;;;4.30;93.27;100603.09;4994720;28;20057;-76
2020/12/26 05:51:34;;;;;;;3.35;3.03;;;;;;;4.30;93.37;100605.75;4995890;28;20041;-78
2020/12/26 05:54:49;;;;;;;3.88;3.47;;;;;;;4.35;93.14;100609.88;4996206;28;20053;-78
2020/12/26 05:57:54;;;;;;;3.65;3.35;;;;;;;4.31;92.56;100605.69;4996637;28;20054;-78
2020/12/26 06:01:02;;;;;;;5.07;3.42;;;;;;;4.43;92.62;100618.25;4995727;28;20402;-77
2020/12/26 06:04:10;;;;;;;4.60;3.88;;;;;;;4.44;92.69;100611.97;4996152;28;20385;-79
2020/12/26 06:07:14;;;;;;;4.30;3.78;;;;;;;4.50;92.62;100627.59;4996148;28;20516;-77
2020/12/26 06:10:18;;;;;;;5.88;3.80;;;;;;;4.45;92.08;100623.47;4994931;28;20053;-78
2020/12/26 06:13:25;;;;;;;4.22;3.78;;;;;;;4.51;92.22;100637.28;4995994;28;20398;-78
2020/12/26 06:16:32;;;;;;;4.65;3.97;;;;;;;4.50;92.10;100645.31;4996238;28;20057;-76
2020/12/26 06:19:38;;;;;;;5.63;4.70;;;;;;;4.58;92.11;100645.75;4996520;28;20049;-77
2020/12/26 06:22:46;;;;;;;6.13;5.00;;;;;;;4.54;92.11;100633.59;4996407;28;20058;-77
2020/12/26 06:25:52;;;;;;;6.15;5.55;;;;;;;4.47;92.29;100643.69;4996230;28;20049;-79
2020/12/26 06:29:02;;;;;;;6.97;6.28;;;;;;;4.51;92.21;100647.91;4995448;28;20054;-78
2020/12/26 06:32:07;;;;;;;8.23;7.43;;;;;;;4.43;92.59;100641.31;4976429;28;20053;-77
2020/12/26 06:35:13;;;;;;;8.85;8.00;;;;;;;4.50;92.38;100653.31;4985803;28;20046;-78
2020/12/26 06:38:26;;;;;;;8.15;7.38;;;;;;;4.47;92.69;100651.69;4995611;28;20049;-78
2020/12/26 06:41:30;;;;;;;8.50;7.70;;;;;;;4.41;92.61;100660.03;5006377;28;20394;-78
2020/12/26 06:44:35;;;;;;;8.23;7.43;;;;;;;4.41;92.74;100654.72;4995613;28;20058;-78
2020/12/26 06:47:39;;;;;;;9.73;7.70;;;;;;;4.43;93.20;100657.25;5006193;28;20394;-77
2020/12/26 06:50:44;;;;;;;8.48;7.75;;;;;;;4.47;93.00;100659.66;4995305;28;20073;-76
2020/12/26 06:53:48;;;;;;;8.73;7.10;;;;;;;4.50;93.17;100675.44;4994792;28;20061;-78
2020/12/26 06:56:52;;;;;;;7.43;6.72;;;;;;;4.49;92.77;100678.19;4982161;28;20485;-77
2020/12/26 06:59:56;;;;;;;7.78;7.00;;;;;;;4.48;93.28;100687.94;4995378;28;20049;-78
2020/12/26 07:03:20;;;;;;;7.55;6.72;;;;;;;4.51;93.18;100693.09;4975970;28;20050;-78
2020/12/26 07:06:40;;;;;;;8.93;8.00;;;;;;;4.43;92.79;100682.03;4987781;28;20045;-78
2020/12/26 07:09:46;;;;;;;9.40;8.18;;;;;;;4.38;93.41;100693.88;4995514;28;20065;-77
2020/12/26 07:12:50;;;;;;;8.30;7.50;;;;;;;4.25;93.61;100691.06;4995155;28;20061;-77
2020/12/26 07:15:54;;;;;;;8.27;7.57;;;;;;;4.37;93.62;100692.19;5016424;28;20058;-77
2020/12/26 07:19:30;;;;;;;6.93;6.22;;;;;;;4.45;93.38;100701.41;4995063;28;20069;-79
2020/12/26 07:22:34;;;;;;;8.77;7.47;;;;;;;4.42;93.48;100693.59;4995312;28;20061;-75
2020/12/26 07:25:39;;;;;;;13.35;8.70;;;;;;;4.36;94.17;100701.94;4995211;28;20053;-78
2020/12/26 07:28:43;;;;;;;10.80;8.75;;;;;;;4.42;94.54;100698.91;5005703;28;20049;-79
2020/12/26 07:31:47;;;;;;;9.93;8.93;;;;;;;4.53;94.05;100701.84;4992323;28;20053;-77
2020/12/26 07:34:52;;;;;;;8.20;7.40;;;;;;;4.65;94.24;100712.69;4990969;28;20057;-78
2020/12/26 07:38:01;;;;;;;8.75;7.95;;;;;;;4.72;93.89;100720.22;4988830;28;20049;-76
2020/12/26 07:41:09;;;;;;;8.65;6.90;;;;;;;4.81;93.72;100716.19;4991886;28;20053;-80
2020/12/26 07:44:14;;;;;;;6.85;6.15;;;;;;;4.88;93.32;100718.41;4993487;28;20053;-81
2020/12/26 07:47:19;;;;;;;7.85;6.43;;;;;;;4.97;93.30;100723.19;4993824;28;20049;-80
2020/12/26 07:50:26;;;;;;;8.27;6.78;;;;;;;5.01;92.95;100723.88;4994242;28;20041;-79
2020/12/26 07:53:30;;;;;;;6.88;5.80;;;;;;;5.15;92.44;100734.53;4993208;28;20053;-78
2020/12/26 07:56:34;;;;;;;7.78;5.68;;;;;;;5.17;91.57;100722.00;4993663;28;20153;-79
2020/12/26 07:59:38;;;;;;;;;;;;;;;5.35;91.10;100742.19;4994674;28;20062;-78
2020/12/26 08:02:48;;;;;;;5.78;4.70;;;;;;;5.61;89.90;100736.13;4994015;28;19917;-79
2020/12/26 08:05:53;;;;;;;6.05;5.38;;;;;;;5.82;88.93;100745.47;4994053;28;20429;-79
2020/12/26 08:08:58;;;;;;;5.80;5.22;;;;;;;5.99;87.99;100756.91;4994371;28;20041;-79
2020/12/26 08:12:06;;;;;;;4.70;4.13;;;;;;;6.05;87.26;100753.88;4988586;28;20057;-77
2020/12/26 08:15:10;;;;;;;5.18;4.15;;;;;;;6.08;87.02;100772.31;4993683;28;20058;-78
2020/12/26 08:18:19;;;;;;;;;;;;;;;5.99;86.51;100780.88;4992861;28;20054;-78
2020/12/26 08:21:24;;;;;;;4.50;4.00;;;;;;;5.97;86.64;100781.00;4993872;28;19921;-76
2020/12/26 08:24:29;;;;;;;5.05;3.92;;;;;;;5.89;87.05;100778.81;4997793;28;20073;-76
2020/12/26 08:27:34;;;;;;;5.45;4.20;;;;;;;5.83;87.34;100791.59;4997793;28;20398;-76
2020/12/26 08:30:39;;;;;;;4.50;3.95;;;;;;;5.79;87.46;100793.59;5019092;28;20061;-77
2020/12/26 08:33:51;;;;;;;4.70;4.05;;;;;;;5.72;87.27;100799.41;4984258;28;20058;-76
2020/12/26 08:37:00;;;;;;;4.88;4.10;;;;;;;5.74;87.25;100810.81;5008064;28;20054;-77
2020/12/26 08:40:13;;;;;;;5.13;4.25;;;;;;;5.68;87.28;100804.03;4997343;28;20498;-76
2020/12/26 08:43:17;;;;;;;5.07;3.70;;;;;;;5.83;87.25;100810.25;4977842;28;20058;-78
2020/12/26 08:46:25;;;;;;;4.50;3.60;;;;;;;5.94;86.54;100799.81;4977968;28;20058;-77
2020/12/26 08:49:29;;;;;;;4.47;3.70;;;;;;;6.00;86.21;100814.59;4992393;28;20049;-79
2020/12/26 08:52:34;;;;;;;29.30;20.25;;;;;;;6.03;86.14;100809.91;4997325;28;20053;-79
2020/12/26 08:55:49;;;;;;;35.70;27.55;;;;;;;6.14;85.25;100817.25;4997117;28;20064;-78
2020/12/26 08:58:53;;;;;;;5.68;4.47;;;;;;;6.33;84.90;100825.81;4996559;28;20501;-78
2020/12/26 09:01:57;;;;;;;5.13;3.63;;;;;;;6.25;84.56;100828.94;4996298;28;20057;-78
2020/12/26 09:05:29;;;;;;;5.10;3.28;;;;;;;6.38;84.03;100832.56;4997075;28;20069;-79
2020/12/26 09:08:35;;;;;;;4.85;2.97;;;;;;;6.45;83.91;100841.03;4997516;28;20054;-77
2020/12/26 09:11:39;;;;;;;4.55;2.95;;;;;;;6.37;84.36;100849.50;5007337;28;20065;-78
2020/12/26 09:14:42;;;;;;;;;;;;;;;6.30;83.98;100853.50;4997363;28;20045;-76
2020/12/26 09:17:46;;;;;;;3.67;2.80;;;;;;;6.45;83.36;100846.34;5007280;28;20376;-77
2020/12/26 09:20:54;;;;;;;31.25;21.63;;;;;;;6.82;82.63;100856.41;4996790;28;20053;-77
2020/12/26 09:23:58;;;;;;;43.00;30.58;;;;;;;7.12;81.54;100854.41;4996504;28;20512;-75
2020/12/26 09:27:03;;;;;;;18.13;15.35;;;;;;;7.28;80.94;100869.44;4996751;28;20053;-76
2020/12/26 09:30:07;;;;;;;4.60;3.47;;;;;;;7.29;80.61;100874.66;4996643;28;20512;-77
2020/12/26 09:33:12;;;;;;;5.80;3.42;;;;;;;7.27;79.83;100881.91;4996662;28;20053;-79
2020/12/26 09:36:19;;;;;;;3.92;3.00;;;;;;;7.18;80.43;100890.53;4996975;28;20045;-79
2020/12/26 09:39:23;;;;;;;4.22;3.25;;;;;;;7.27;81.02;100891.72;5007273;28;20057;-79
2020/12/26 09:42:28;;;;;;;4.60;3.30;;;;;;;7.27;80.42;100889.06;4996430;28;20045;-78
2020/12/26 09:45:32;;;;;;;3.67;2.80;;;;;;;7.31;80.59;100886.09;5006524;28;20049;-79
2020/12/26 09:48:37;;;;;;;4.90;3.28;;;;;;;7.33;80.54;100894.00;4996288;28;20069;-77
2020/12/26 09:51:44;;;;;;;4.13;3.55;;;;;;;7.88;78.98;100882.19;4996071;28;20520;-79
2020/12/26 09:54:48;;;;;;;4.47;3.30;;;;;;;7.95;78.07;100882.63;4996325;28;20065;-78
2020/12/26 09:57:52;;;;;;;;;;;;;;;7.85;78.35;100894.94;5006880;28;20053;-77
2020/12/26 10:00:56;;;;;;;5.25;3.42;;;;;;;7.90;78.34;100894.59;4996282;28;19918;-77
2020/12/26 10:04:01;;;;;;;4.47;3.53;;;;;;;7.80;78.54;100886.38;4995864;28;20053;-78
2020/12/26 10:07:04;;;;;;;5.15;3.70;;;;;;;7.93;78.45;100884.53;4995939;28;20496;-78
2020/12/26 10:10:10;;;;;;;6.28;4.43;;;;;;;8.08;78.25;100885.31;4995674;28;20082;-77
2020/12/26 10:13:14;;;;;;;4.57;3.30;;;;;;;8.34;76.73;100871.03;4995827;28;20049;-76
2020/12/26 10:16:19;;;;;;;5.93;3.78;;;;;;;8.59;76.22;100870.16;5006586;28;20049;-77
2020/12/26 10:19:23;;;;;;;5.95;4.20;;;;;;;8.57;75.68;100874.75;4996029;28;20501;-78
2020/12/26 10:22:27;;;;;;;4.68;3.90;;;;;;;8.99;74.37;100885.88;4995668;28;20053;-78
2020/12/26 10:25:31;;;;;;;58.75;40.05;;;;;;;9.01;74.38;100880.44;4995603;28;20053;-77
2020/12/26 10:28:35;;;;;;;;;;;;;;;8.78;74.55;100879.41;4996165;28;20130;-79
2020/12/26 10:31:39;;;;;;;23.65;17.48;;;;;;;8.69;75.15;100887.25;4995589;28;19918;-79
2020/12/26 10:34:43;;;;;;;5.18;4.40;;;;;;;8.71;74.93;100872.81;4995603;28;20049;-77
2020/12/26 10:37:48;;;;;;;5.05;3.83;;;;;;;8.94;74.44;100873.78;4995498;28;20049;-78
2020/12/26 10:40:52;;;;;;;6.68;4.30;;;;;;;8.97;74.36;100860.19;4994670;28;20057;-77
2020/12/26 10:43:56;;;;;;;4.32;3.58;;;;;;;9.03;74.66;100857.94;4995057;28;20071;-78
2020/12/26 10:47:00;;;;;;;;;;;;;;;9.09;73.59;100854.78;5005231;28;20425;-78
2020/12/26 10:50:05;;;;;;;3.67;3.25;;;;;;;9.28;73.11;100851.63;5004436;28;19926;-78
2020/12/26 10:53:09;;;;;;;5.07;3.40;;;;;;;9.56;72.17;100850.38;5016793;28;20062;-78
2020/12/26 10:56:13;;;;;;;4.20;3.47;;;;;;;9.22;72.52;100845.84;4975816;28;20422;-77
2020/12/26 10:59:18;;;;;;;4.97;3.60;;;;;;;9.26;73.31;100842.00;4976003;28;20481;-78
2020/12/26 11:02:22;;;;;;;4.22;3.33;;;;;;;9.48;72.37;100842.09;4975567;28;20501;-77
2020/12/26 11:05:26;;;;;;;4.85;3.38;;;;;;;9.33;71.78;100836.06;4995067;28;20053;-77
2020/12/26 11:08:30;;;;;;;4.43;2.95;;;;;;;9.28;72.27;100840.03;4995283;28;20053;-77
2020/12/26 11:11:34;;;;;;;3.55;3.03;;;;;;;9.32;72.01;100839.69;5014937;28;20061;-77
2020/12/26 11:14:39;;;;;;;6.05;3.55;;;;;;;9.46;71.10;100836.81;4975769;28;20433;-77
2020/12/26 11:17:43;;;;;;;4.15;3.25;;;;;;;9.33;71.58;100829.84;4985606;28;20061;-78
2020/12/26 11:20:49;;;;;;;4.65;3.10;;;;;;;9.31;72.40;100831.78;4995071;28;20049;-79
2020/12/26 11:23:53;;;;;;;6.93;4.63;;;;;;;9.08;71.58;100846.88;4994937;28;20053;-77
2020/12/26 11:26:58;;;;;;;7.93;5.57;;;;;;;9.01;72.62;100834.91;4994954;28;20050;-78
2020/12/26 11:30:03;;;;;;;7.38;5.30;;;;;;;9.20;72.71;100842.44;4994975;28;20054;-77
2020/12/26 11:33:08;;;;;;;5.20;3.53;;;;;;;9.23;71.92;100831.50;4995198;28;20049;-77
2020/12/26 11:36:21;;;;;;;4.70;3.30;;;;;;;9.30;72.01;100833.59;4994810;28;20057;-77
2020/12/26 11:39:27;;;;;;;;;;;;;;;9.41;70.88;100836.31;4994278;28;20057;-78
2020/12/26 11:42:31;;;;;;;3.80;3.10;;;;;;;9.51;70.73;100826.63;4994736;28;19917;-77
2020/12/26 11:45:35;;;;;;;5.15;3.55;;;;;;;9.31;71.59;100826.44;4994016;28;20057;-77
2020/12/26 11:48:40;;;;;;;6.63;3.20;;;;;;;9.41;71.57;100822.91;4994645;28;20406;-77
2020/12/26 11:51:44;;;;;;;4.40;2.70;;;;;;;9.48;69.74;100805.41;4994771;28;20053;-77
2020/12/26 11:54:48;;;;;;;4.20;2.50;;;;;;;9.09;67.80;100821.78;4994639;28;20054;-76
2020/12/26 11:57:52;;;;;;;3.92;2.42;;;;;;;9.06;68.47;100809.50;4993982;28;20390;-76
2020/12/26 12:00:57;;;;;;;16.13;11.85;;;;;;;9.05;69.00;100817.66;5015589;28;20053;-81
2020/12/26 12:04:02;;;;;;;10.52;7.80;;;;;;;8.94;67.97;100820.25;4990190;28;20049;-77
2020/12/26 12:07:06;;;;;;;6.35;2.67;;;;;;;8.78;67.99;100817.88;4994596;28;20057;-78
2020/12/26 12:10:10;;;;;;;4.32;2.92;;;;;;;8.61;69.65;100817.38;5004434;28;20512;-78
2020/12/26 12:13:15;;;;;;;6.05;2.88;;;;;;;8.71;68.70;100813.94;4994658;28;20057;-76
2020/12/26 12:16:19;;;;;;;4.68;2.75;;;;;;;8.89;66.47;100809.88;4994424;28;20053;-77
2020/12/26 12:19:23;;;;;;;4.53;2.75;;;;;;;9.12;65.03;100798.34;4994654;28;20053;-77
2020/12/26 12:22:27;;;;;;;3.85;2.50;;;;;;;9.28;64.95;100798.06;4993944;28;20049;-77
2020/12/26 12:25:32;;;;;;;4.15;2.65;;;;;;;9.19;65.09;100801.41;5004798;28;20065;-79
2020/12/26 12:28:36;;;;;;;4.90;2.63;;;;;;;9.32;64.22;100787.94;4992508;28;20046;-78
2020/12/26 12:31:41;;;;;;;4.97;2.40;;;;;;;9.49;64.59;100791.03;4974187;28;20050;-76
2020/12/26 12:34:45;;;;;;;4.45;2.65;;;;;;;9.57;65.24;100793.16;4996828;28;20050;-78
2020/12/26 12:37:50;;;;;;;4.05;2.85;;;;;;;9.57;66.45;100788.66;4985383;28;20050;-78
2020/12/26 12:40:54;;;;;;;5.22;3.50;;;;;;;9.58;66.55;100784.97;4974800;28;20054;-80
2020/12/26 12:43:58;;;;;;;5.88;3.33;;;;;;;9.52;66.72;100780.09;4974588;28;20394;-78
2020/12/26 12:47:03;;;;;;;5.28;3.40;;;;;;;9.21;67.28;100774.53;4974045;28;20058;-79
2020/12/26 12:50:09;;;;;;;5.15;3.38;;;;;;;8.75;67.79;100790.44;4974806;28;20097;-80
2020/12/26 12:53:14;;;;;;;6.68;3.88;;;;;;;8.59;68.43;100782.72;4974544;28;20066;-79
2020/12/26 12:56:18;;;;;;;10.20;5.13;;;;;;;8.44;68.23;100791.84;4985049;28;20054;-79
2020/12/26 12:59:23;;;;;;;10.77;5.30;;;;;;;8.23;69.08;100785.31;4974568;28;20066;-80
2020/12/26 13:02:27;;;;;;;10.32;4.32;;;;;;;8.17;69.30;100778.56;4974334;28;20050;-78
2020/12/26 13:05:32;;;;;;;5.57;2.72;;;;;;;7.91;68.34;100771.53;4974574;28;20049;-78
2020/12/26 13:08:36;;;;;;;3.38;2.17;;;;;;;7.99;67.56;100773.69;4975032;28;20061;-79
2020/12/26 13:11:43;;;;;;;5.15;2.60;;;;;;;7.86;67.98;100771.88;4978159;28;20054;-79
2020/12/26 13:14:48;;;;;;;6.85;3.10;;;;;;;7.91;68.12;100771.53;4978004;28;20062;-79
2020/12/26 13:17:52;;;;;;;7.40;4.40;;;;;;;8.05;68.00;100770.59;4977460;28;20046;-78
2020/12/26 13:20:56;;;;;;;5.50;3.15;;;;;;;8.17;67.81;100759.84;4977913;28;20501;-79
2020/12/26 13:24:01;;;;;;;4.43;2.40;;;;;;;8.30;66.78;100758.03;4977859;28;20058;-79
2020/12/26 13:27:05;;;;;;;4.35;2.33;;;;;;;8.53;66.04;100751.03;4977207;28;20492;-79
2020/12/26 13:30:10;;;;;;;6.65;3.05;;;;;;;8.50;65.96;100754.78;4977725;28;20381;-79
2020/12/26 13:33:14;;;;;;;5.82;2.60;;;;;;;8.36;65.73;100749.59;4977215;28;20054;-78
2020/12/26 13:36:19;;;;;;;6.22;2.80;;;;;;;8.27;65.92;100744.06;4977591;28;20057;-78
2020/12/26 13:39:23;;;;;;;4.97;2.45;;;;;;;8.33;66.03;100754.28;4977603;28;20374;-79
2020/12/26 13:42:28;;;;;;;4.78;2.45;;;;;;;8.13;66.08;100758.38;4977385;28;20046;-80
2020/12/26 13:45:32;;;;;;;4.68;2.50;;;;;;;8.20;67.11;100758.78;4986634;28;20053;-80
2020/12/26 13:48:36;;;;;;;7.68;2.70;;;;;;;8.14;67.75;100760.09;4994876;28;20061;-78
2020/12/26 13:51:47;;;;;;;7.03;2.65;;;;;;;8.00;67.79;100765.53;4996707;28;20057;-78
2020/12/26 13:54:50;;;;;;;6.40;2.88;;;;;;;7.82;68.44;100764.19;4995694;28;20058;-78
2020/12/26 13:57:55;;;;;;;7.60;3.08;;;;;;;7.74;68.68;100759.38;4996711;28;20045;-79
2020/12/26 14:01:00;;;;;;;5.45;2.88;;;;;;;7.78;69.62;100757.31;5007159;28;20059;-79
2020/12/26 14:04:04;;;;;;;5.07;2.72;;;;;;;7.67;69.93;100749.22;4995002;28;20053;-78
2020/12/26 14:07:08;;;;;;;5.85;3.33;;;;;;;7.70;70.90;100754.34;4995993;28;20054;-78
2020/12/26 14:10:13;;;;;;;5.47;3.80;;;;;;;7.73;71.13;100759.44;4996518;28;20485;-79
2020/12/26 14:13:17;;;;;;;8.35;3.70;;;;;;;7.77;73.42;100766.31;4996381;28;20053;-78
2020/12/26 14:16:23;;;;;;;6.07;4.13;;;;;;;7.74;75.43;100759.38;4988713;28;20053;-80
2020/12/26 14:19:28;;;;;;;6.57;3.55;;;;;;;7.80;74.92;100758.09;4995233;28;20394;-78
2020/12/26 14:22:32;;;;;;;4.93;3.33;;;;;;;7.80;74.82;100758.09;5017501;28;20414;-78
2020/12/26 14:25:36;;;;;;;7.38;3.45;;;;;;;7.76;73.81;100765.47;4996145;28;20597;-77
2020/12/26 14:28:40;;;;;;;5.05;3.30;;;;;;;7.63;72.76;100755.72;4995493;28;20073;-79
2020/12/26 14:31:49;;;;;;;5.85;3.05;;;;;;;7.71;72.72;100754.22;4995678;28;20394;-78
2020/12/26 14:34:53;;;;;;;5.20;3.33;;;;;;;7.59;72.13;100762.22;4994604;28;20053;-77